sensor_id;sensor_type;location;lat;lon;timestamp;temperature;humidity
20481;DHT22;10399;50.754;3.366;2023-02-13T00:00:44;9.80;99.90
20481;DHT22;10399;50.754;3.366;2023-02-13T00:03:11;9.70;99.90
20481;DHT22;10399;50.754;3.366;2023-02-13T00:05:39;9.60;99.90
20481;DHT22;10399;50.754;3.366;2023-02-13T00:08:06;9.60;99.90
20481;DHT22;10399;50.754;3.366;2023-02-13T00:10:33;9.60;99.90
20481;DHT22;10399;50.754;3.366;2023-02-13T00:13:00;9.70;99.90
20481;DHT22;10399;50.754;3.366;2023-02-13T00:15:27;9.70;99.90
20481;DHT22;10399;50.754;3.366;2023-02-13T00:17:54;9.60;99.90
20481;DHT22;10399;50.754;3.366;2023-02-13T00:20:21;9.70;99.90
20481;DHT22;10399;50.754;3.366;2023-02-13T00:22:47;9.70;99.90
20481;DHT22;10399;50.754;3.366;2023-02-13T00:25:14;9.70;99.90
20481;DHT22;10399;50.754;3.366;2023-02-13T00:27:41;9.70;99.90
20481;DHT22;10399;50.754;3.366;2023-02-13T00:30:09;9.70;99.90
20481;DHT22;10399;50.754;3.366;2023-02-13T00:32:36;9.70;99.90
20481;DHT22;10399;50.754;3.366;2023-02-13T00:35:03;9.70;99.90
20481;DHT22;10399;50.754;3.366;2023-02-13T00:37:30;9.70;99.90
20481;DHT22;10399;50.754;3.366;2023-02-13T00:39:57;9.70;99.90
20481;DHT22;10399;50.754;3.366;2023-02-13T00:42:24;9.80;99.90
20481;DHT22;10399;50.754;3.366;2023-02-13T00:44:53;9.80;99.90
20481;DHT22;10399;50.754;3.366;2023-02-13T00:47:20;9.70;99.90
20481;DHT22;10399;50.754;3.366;2023-02-13T00:49:47;9.80;99.90
20481;DHT22;10399;50.754;3.366;2023-02-13T00:52:14;9.70;99.90
20481;DHT22;10399;50.754;3.366;2023-02-13T00:54:41;9.70;99.90
20481;DHT22;10399;50.754;3.366;2023-02-13T00:57:08;9.60;99.90
20481;DHT22;10399;50.754;3.366;2023-02-13T00:59:35;9.70;99.90
20481;DHT22;10399;50.754;3.366;2023-02-13T01:02:02;9.60;99.90
20481;DHT22;10399;50.754;3.366;2023-02-13T01:04:29;9.60;99.90
20481;DHT22;10399;50.754;3.366;2023-02-13T01:06:57;9.50;99.90
20481;DHT22;10399;50.754;3.366;2023-02-13T01:09:24;9.40;99.90
20481;DHT22;10399;50.754;3.366;2023-02-13T01:11:51;9.30;99.90
20481;DHT22;10399;50.754;3.366;2023-02-13T01:14:18;9.40;99.90
20481;DHT22;10399;50.754;3.366;2023-02-13T01:16:45;9.40;99.90
20481;DHT22;10399;50.754;3.366;2023-02-13T01:19:12;9.40;99.90
20481;DHT22;10399;50.754;3.366;2023-02-13T01:21:39;9.40;99.90
20481;DHT22;10399;50.754;3.366;2023-02-13T01:24:06;9.30;99.90
20481;DHT22;10399;50.754;3.366;2023-02-13T01:26:33;9.40;99.90
20481;DHT22;10399;50.754;3.366;2023-02-13T01:29:00;9.40;99.90
20481;DHT22;10399;50.754;3.366;2023-02-13T01:31:27;9.50;99.90
20481;DHT22;10399;50.754;3.366;2023-02-13T01:33:58;9.50;99.90
20481;DHT22;10399;50.754;3.366;2023-02-13T01:36:25;9.50;99.90
20481;DHT22;10399;50.754;3.366;2023-02-13T01:38:54;9.40;99.90
20481;DHT22;10399;50.754;3.366;2023-02-13T01:41:22;9.50;99.90
20481;DHT22;10399;50.754;3.366;2023-02-13T01:43:56;9.50;99.90
20481;DHT22;10399;50.754;3.366;2023-02-13T01:46:37;9.50;99.90
20481;DHT22;10399;50.754;3.366;2023-02-13T01:49:21;9.50;99.90
20481;DHT22;10399;50.754;3.366;2023-02-13T01:51:52;9.50;99.90
20481;DHT22;10399;50.754;3.366;2023-02-13T01:54:26;9.40;99.90
20481;DHT22;10399;50.754;3.366;2023-02-13T01:57:04;9.40;99.90
20481;DHT22;10399;50.754;3.366;2023-02-13T01:59:36;9.40;99.90
20481;DHT22;10399;50.754;3.366;2023-02-13T02:02:05;9.40;99.90
20481;DHT22;10399;50.754;3.366;2023-02-13T02:04:34;9.40;99.90
20481;DHT22;10399;50.754;3.366;2023-02-13T02:07:07;9.40;99.90
20481;DHT22;10399;50.754;3.366;2023-02-13T02:09:38;9.40;99.90
20481;DHT22;10399;50.754;3.366;2023-02-13T02:12:21;9.40;99.90
20481;DHT22;10399;50.754;3.366;2023-02-13T02:14:51;9.30;99.90
20481;DHT22;10399;50.754;3.366;2023-02-13T02:17:20;9.30;99.90
20481;DHT22;10399;50.754;3.366;2023-02-13T02:28:38;9.10;99.90
20481;DHT22;10399;50.754;3.366;2023-02-13T02:34:39;9.00;99.90
20481;DHT22;10399;50.754;3.366;2023-02-13T02:37:18;8.80;99.90
20481;DHT22;10399;50.754;3.366;2023-02-13T02:40:12;8.60;99.90
20481;DHT22;10399;50.754;3.366;2023-02-13T02:51:40;8.20;99.90
20481;DHT22;10399;50.754;3.366;2023-02-13T02:54:48;8.10;99.90
20481;DHT22;10399;50.754;3.366;2023-02-13T02:57:41;8.00;99.90
20481;DHT22;10399;50.754;3.366;2023-02-13T03:00:42;7.90;99.90
20481;DHT22;10399;50.754;3.366;2023-02-13T03:03:29;7.80;99.90
20481;DHT22;10399;50.754;3.366;2023-02-13T03:06:39;7.70;99.90
20481;DHT22;10399;50.754;3.366;2023-02-13T03:09:16;7.70;99.90
20481;DHT22;10399;50.754;3.366;2023-02-13T03:12:03;7.60;99.90
20481;DHT22;10399;50.754;3.366;2023-02-13T03:14:49;7.60;99.90
20481;DHT22;10399;50.754;3.366;2023-02-13T03:17:17;7.50;99.90
20481;DHT22;10399;50.754;3.366;2023-02-13T03:23:16;7.40;99.90
20481;DHT22;10399;50.754;3.366;2023-02-13T03:26:15;7.40;99.90
20481;DHT22;10399;50.754;3.366;2023-02-13T03:29:11;7.40;99.90
20481;DHT22;10399;50.754;3.366;2023-02-13T03:35:26;7.40;99.90
20481;DHT22;10399;50.754;3.366;2023-02-13T03:38:07;7.50;99.90
20481;DHT22;10399;50.754;3.366;2023-02-13T03:40:52;7.40;99.90
20481;DHT22;10399;50.754;3.366;2023-02-13T03:46:24;7.30;99.90
20481;DHT22;10399;50.754;3.366;2023-02-13T03:48:52;7.20;99.90
20481;DHT22;10399;50.754;3.366;2023-02-13T03:51:44;7.20;99.90
20481;DHT22;10399;50.754;3.366;2023-02-13T03:54:45;7.10;99.90
20481;DHT22;10399;50.754;3.366;2023-02-13T03:57:33;7.00;99.90
20481;DHT22;10399;50.754;3.366;2023-02-13T04:00:20;7.10;99.90
20481;DHT22;10399;50.754;3.366;2023-02-13T04:05:53;7.00;99.90
20481;DHT22;10399;50.754;3.366;2023-02-13T04:08:22;7.00;99.90
20481;DHT22;10399;50.754;3.366;2023-02-13T04:11:14;7.00;99.90
20481;DHT22;10399;50.754;3.366;2023-02-13T04:13:51;7.00;99.90
20481;DHT22;10399;50.754;3.366;2023-02-13T04:16:36;7.00;99.90
20481;DHT22;10399;50.754;3.366;2023-02-13T04:19:05;7.00;99.90
20481;DHT22;10399;50.754;3.366;2023-02-13T04:21:34;6.90;99.90
20481;DHT22;10399;50.754;3.366;2023-02-13T04:24:02;6.80;99.90
20481;DHT22;10399;50.754;3.366;2023-02-13T04:26:36;6.80;99.90
20481;DHT22;10399;50.754;3.366;2023-02-13T04:29:04;6.80;99.90
20481;DHT22;10399;50.754;3.366;2023-02-13T04:31:31;6.70;99.90
20481;DHT22;10399;50.754;3.366;2023-02-13T04:33:59;6.70;99.90
20481;DHT22;10399;50.754;3.366;2023-02-13T04:36:26;6.70;99.90
20481;DHT22;10399;50.754;3.366;2023-02-13T04:38:53;6.70;99.90
20481;DHT22;10399;50.754;3.366;2023-02-13T04:41:20;6.60;99.90
20481;DHT22;10399;50.754;3.366;2023-02-13T04:43:47;6.70;99.90
20481;DHT22;10399;50.754;3.366;2023-02-13T04:46:14;6.70;99.90
20481;DHT22;10399;50.754;3.366;2023-02-13T04:48:41;6.70;99.90
20481;DHT22;10399;50.754;3.366;2023-02-13T04:51:08;6.70;99.90
20481;DHT22;10399;50.754;3.366;2023-02-13T04:53:35;6.60;99.90
20481;DHT22;10399;50.754;3.366;2023-02-13T04:56:02;6.60;99.90
20481;DHT22;10399;50.754;3.366;2023-02-13T04:58:29;6.50;99.90
20481;DHT22;10399;50.754;3.366;2023-02-13T05:00:56;6.40;99.90
20481;DHT22;10399;50.754;3.366;2023-02-13T05:03:24;6.40;99.90
20481;DHT22;10399;50.754;3.366;2023-02-13T05:05:51;6.40;99.90
20481;DHT22;10399;50.754;3.366;2023-02-13T05:08:18;6.50;99.90
20481;DHT22;10399;50.754;3.366;2023-02-13T05:10:45;6.50;99.90
20481;DHT22;10399;50.754;3.366;2023-02-13T05:13:12;6.40;99.90
20481;DHT22;10399;50.754;3.366;2023-02-13T05:15:39;6.50;99.90
20481;DHT22;10399;50.754;3.366;2023-02-13T05:18:06;6.40;99.90
20481;DHT22;10399;50.754;3.366;2023-02-13T05:20:33;6.30;99.90
20481;DHT22;10399;50.754;3.366;2023-02-13T05:23:00;6.30;99.90
20481;DHT22;10399;50.754;3.366;2023-02-13T05:25:59;6.30;99.90
20481;DHT22;10399;50.754;3.366;2023-02-13T05:28:26;6.30;99.90
20481;DHT22;10399;50.754;3.366;2023-02-13T05:31:12;6.30;99.90
20481;DHT22;10399;50.754;3.366;2023-02-13T05:33:39;6.40;99.90
20481;DHT22;10399;50.754;3.366;2023-02-13T05:36:06;6.40;99.90
20481;DHT22;10399;50.754;3.366;2023-02-13T05:38:34;6.40;99.90
20481;DHT22;10399;50.754;3.366;2023-02-13T05:41:01;6.40;99.90
20481;DHT22;10399;50.754;3.366;2023-02-13T05:43:28;6.20;99.90
20481;DHT22;10399;50.754;3.366;2023-02-13T05:46:03;6.40;99.90
20481;DHT22;10399;50.754;3.366;2023-02-13T05:48:31;6.40;99.90
20481;DHT22;10399;50.754;3.366;2023-02-13T05:50:58;6.50;99.90
20481;DHT22;10399;50.754;3.366;2023-02-13T05:53:26;6.40;99.90
20481;DHT22;10399;50.754;3.366;2023-02-13T05:55:53;6.30;99.90
20481;DHT22;10399;50.754;3.366;2023-02-13T05:58:20;6.30;99.90
20481;DHT22;10399;50.754;3.366;2023-02-13T06:00:47;6.20;99.90
20481;DHT22;10399;50.754;3.366;2023-02-13T06:03:14;6.20;99.90
20481;DHT22;10399;50.754;3.366;2023-02-13T06:05:42;6.10;99.90
20481;DHT22;10399;50.754;3.366;2023-02-13T06:08:09;6.00;99.90
20481;DHT22;10399;50.754;3.366;2023-02-13T06:10:36;6.10;99.90
20481;DHT22;10399;50.754;3.366;2023-02-13T06:13:03;6.10;99.90
20481;DHT22;10399;50.754;3.366;2023-02-13T06:15:30;6.00;99.90
20481;DHT22;10399;50.754;3.366;2023-02-13T06:17:57;6.00;99.90
20481;DHT22;10399;50.754;3.366;2023-02-13T06:20:24;6.00;99.90
20481;DHT22;10399;50.754;3.366;2023-02-13T06:22:52;5.90;99.90
20481;DHT22;10399;50.754;3.366;2023-02-13T06:25:19;5.90;99.90
20481;DHT22;10399;50.754;3.366;2023-02-13T06:27:47;5.80;99.90
20481;DHT22;10399;50.754;3.366;2023-02-13T06:30:15;5.70;99.90
20481;DHT22;10399;50.754;3.366;2023-02-13T06:32:42;5.70;99.90
20481;DHT22;10399;50.754;3.366;2023-02-13T06:35:09;5.60;99.90
20481;DHT22;10399;50.754;3.366;2023-02-13T06:37:36;5.50;99.90
20481;DHT22;10399;50.754;3.366;2023-02-13T06:40:06;5.50;99.90
20481;DHT22;10399;50.754;3.366;2023-02-13T06:42:33;5.50;99.90
20481;DHT22;10399;50.754;3.366;2023-02-13T06:45:00;5.50;99.90
20481;DHT22;10399;50.754;3.366;2023-02-13T06:47:27;5.50;99.90
20481;DHT22;10399;50.754;3.366;2023-02-13T06:49:54;5.40;99.90
20481;DHT22;10399;50.754;3.366;2023-02-13T06:52:21;5.40;99.90
20481;DHT22;10399;50.754;3.366;2023-02-13T06:54:48;5.30;99.90
20481;DHT22;10399;50.754;3.366;2023-02-13T06:57:15;5.30;99.90
20481;DHT22;10399;50.754;3.366;2023-02-13T06:59:42;5.20;99.90
20481;DHT22;10399;50.754;3.366;2023-02-13T07:02:10;5.10;99.90
20481;DHT22;10399;50.754;3.366;2023-02-13T07:04:38;5.20;99.90
20481;DHT22;10399;50.754;3.366;2023-02-13T07:07:05;5.20;99.90
20481;DHT22;10399;50.754;3.366;2023-02-13T07:09:32;5.20;99.90
20481;DHT22;10399;50.754;3.366;2023-02-13T07:12:03;5.20;99.90
20481;DHT22;10399;50.754;3.366;2023-02-13T07:14:30;5.10;99.90
20481;DHT22;10399;50.754;3.366;2023-02-13T07:16:57;5.10;99.90
20481;DHT22;10399;50.754;3.366;2023-02-13T07:19:24;5.10;99.90
20481;DHT22;10399;50.754;3.366;2023-02-13T07:21:51;5.10;99.90
20481;DHT22;10399;50.754;3.366;2023-02-13T07:24:18;5.10;99.90
20481;DHT22;10399;50.754;3.366;2023-02-13T07:26:45;5.10;99.90
20481;DHT22;10399;50.754;3.366;2023-02-13T07:29:11;5.10;99.90
20481;DHT22;10399;50.754;3.366;2023-02-13T07:31:39;5.00;99.90
20481;DHT22;10399;50.754;3.366;2023-02-13T07:34:06;5.10;99.90
20481;DHT22;10399;50.754;3.366;2023-02-13T07:36:33;5.10;99.90
20481;DHT22;10399;50.754;3.366;2023-02-13T07:39:00;5.00;99.90
20481;DHT22;10399;50.754;3.366;2023-02-13T07:41:27;5.00;99.90
20481;DHT22;10399;50.754;3.366;2023-02-13T07:43:54;5.00;99.90
20481;DHT22;10399;50.754;3.366;2023-02-13T07:46:21;5.00;99.90
20481;DHT22;10399;50.754;3.366;2023-02-13T07:48:51;5.10;99.90
20481;DHT22;10399;50.754;3.366;2023-02-13T07:51:18;5.00;99.90
20481;DHT22;10399;50.754;3.366;2023-02-13T07:53:45;4.90;99.90
20481;DHT22;10399;50.754;3.366;2023-02-13T07:56:12;5.00;99.90
20481;DHT22;10399;50.754;3.366;2023-02-13T07:58:39;5.00;99.90
20481;DHT22;10399;50.754;3.366;2023-02-13T08:01:11;5.10;99.90
20481;DHT22;10399;50.754;3.366;2023-02-13T08:03:38;5.10;99.90
20481;DHT22;10399;50.754;3.366;2023-02-13T08:06:07;5.20;99.90
20481;DHT22;10399;50.754;3.366;2023-02-13T08:08:35;5.30;99.90
20481;DHT22;10399;50.754;3.366;2023-02-13T08:11:05;5.40;99.90
20481;DHT22;10399;50.754;3.366;2023-02-13T08:13:51;5.50;99.90
20481;DHT22;10399;50.754;3.366;2023-02-13T08:16:18;5.50;99.90
20481;DHT22;10399;50.754;3.366;2023-02-13T08:18:45;5.70;99.90
20481;DHT22;10399;50.754;3.366;2023-02-13T08:21:12;5.80;99.90
20481;DHT22;10399;50.754;3.366;2023-02-13T08:23:41;5.90;99.90
20481;DHT22;10399;50.754;3.366;2023-02-13T08:26:08;6.10;99.90
20481;DHT22;10399;50.754;3.366;2023-02-13T08:28:35;6.30;99.90
20481;DHT22;10399;50.754;3.366;2023-02-13T08:31:09;6.40;99.90
20481;DHT22;10399;50.754;3.366;2023-02-13T08:33:37;6.50;99.90
20481;DHT22;10399;50.754;3.366;2023-02-13T08:36:05;6.60;99.90
20481;DHT22;10399;50.754;3.366;2023-02-13T08:38:32;6.70;99.90
20481;DHT22;10399;50.754;3.366;2023-02-13T08:40:59;6.70;99.90
20481;DHT22;10399;50.754;3.366;2023-02-13T08:43:26;6.70;99.90
20481;DHT22;10399;50.754;3.366;2023-02-13T08:45:56;6.80;99.90
20481;DHT22;10399;50.754;3.366;2023-02-13T08:48:25;6.90;99.90
20481;DHT22;10399;50.754;3.366;2023-02-13T08:50:52;7.20;99.90
20481;DHT22;10399;50.754;3.366;2023-02-13T08:53:19;7.10;99.90
20481;DHT22;10399;50.754;3.366;2023-02-13T08:55:53;7.40;99.90
20481;DHT22;10399;50.754;3.366;2023-02-13T08:58:21;7.40;99.90
20481;DHT22;10399;50.754;3.366;2023-02-13T09:00:48;7.50;99.90
20481;DHT22;10399;50.754;3.366;2023-02-13T09:03:16;7.50;99.90
20481;DHT22;10399;50.754;3.366;2023-02-13T09:05:43;7.60;99.90
20481;DHT22;10399;50.754;3.366;2023-02-13T09:08:10;7.60;99.90
20481;DHT22;10399;50.754;3.366;2023-02-13T09:10:41;7.60;99.90
20481;DHT22;10399;50.754;3.366;2023-02-13T09:13:09;7.80;99.90
20481;DHT22;10399;50.754;3.366;2023-02-13T09:15:40;7.90;99.90
20481;DHT22;10399;50.754;3.366;2023-02-13T09:18:07;7.80;99.90
20481;DHT22;10399;50.754;3.366;2023-02-13T09:20:34;8.00;99.90
20481;DHT22;10399;50.754;3.366;2023-02-13T09:23:02;8.10;99.90
20481;DHT22;10399;50.754;3.366;2023-02-13T09:25:29;8.20;99.90
20481;DHT22;10399;50.754;3.366;2023-02-13T09:27:56;8.40;99.90
20481;DHT22;10399;50.754;3.366;2023-02-13T09:30:23;8.50;99.90
20481;DHT22;10399;50.754;3.366;2023-02-13T09:32:51;8.80;99.90
20481;DHT22;10399;50.754;3.366;2023-02-13T09:35:19;8.90;99.90
20481;DHT22;10399;50.754;3.366;2023-02-13T09:37:46;9.10;99.90
20481;DHT22;10399;50.754;3.366;2023-02-13T09:40:26;9.30;99.90
20481;DHT22;10399;50.754;3.366;2023-02-13T09:43:06;9.50;99.90
20481;DHT22;10399;50.754;3.366;2023-02-13T09:45:33;9.80;99.90
20481;DHT22;10399;50.754;3.366;2023-02-13T09:48:00;9.90;99.90
20481;DHT22;10399;50.754;3.366;2023-02-13T09:50:30;10.10;99.90
20481;DHT22;10399;50.754;3.366;2023-02-13T09:53:00;9.90;99.90
20481;DHT22;10399;50.754;3.366;2023-02-13T09:58:31;10.10;99.90
20481;DHT22;10399;50.754;3.366;2023-02-13T10:01:02;10.20;99.90
20481;DHT22;10399;50.754;3.366;2023-02-13T10:03:39;10.50;99.90
20481;DHT22;10399;50.754;3.366;2023-02-13T10:06:18;10.40;99.90
20481;DHT22;10399;50.754;3.366;2023-02-13T10:14:36;10.90;99.90
20481;DHT22;10399;50.754;3.366;2023-02-13T10:17:13;11.00;99.90
20481;DHT22;10399;50.754;3.366;2023-02-13T10:19:45;11.00;99.90
20481;DHT22;10399;50.754;3.366;2023-02-13T10:22:19;11.00;99.90
20481;DHT22;10399;50.754;3.366;2023-02-13T10:25:02;11.20;99.90
20481;DHT22;10399;50.754;3.366;2023-02-13T10:27:39;11.10;99.90
20481;DHT22;10399;50.754;3.366;2023-02-13T10:30:17;11.00;99.90
20481;DHT22;10399;50.754;3.366;2023-02-13T10:35:28;11.70;99.90
20481;DHT22;10399;50.754;3.366;2023-02-13T10:37:58;11.80;99.90
20481;DHT22;10399;50.754;3.366;2023-02-13T10:40:37;12.20;99.90
20481;DHT22;10399;50.754;3.366;2023-02-13T10:43:10;12.40;99.90
20481;DHT22;10399;50.754;3.366;2023-02-13T10:51:17;12.20;99.90
20481;DHT22;10399;50.754;3.366;2023-02-13T11:04:42;12.20;99.90
20481;DHT22;10399;50.754;3.366;2023-02-13T11:07:23;12.30;99.90
20481;DHT22;10399;50.754;3.366;2023-02-13T11:09:54;12.40;99.90
20481;DHT22;10399;50.754;3.366;2023-02-13T11:14:54;12.50;99.90
20481;DHT22;10399;50.754;3.366;2023-02-13T11:17:22;13.10;99.90
20481;DHT22;10399;50.754;3.366;2023-02-13T11:19:59;13.70;99.90
20481;DHT22;10399;50.754;3.366;2023-02-13T11:25:24;13.90;99.90
20481;DHT22;10399;50.754;3.366;2023-02-13T11:27:50;14.10;99.90
20481;DHT22;10399;50.754;3.366;2023-02-13T11:30:29;14.30;99.90
20481;DHT22;10399;50.754;3.366;2023-02-13T11:33:08;14.20;99.90
20481;DHT22;10399;50.754;3.366;2023-02-13T11:35:44;14.40;99.90
20481;DHT22;10399;50.754;3.366;2023-02-13T11:40:46;15.20;99.90
20481;DHT22;10399;50.754;3.366;2023-02-13T11:44:16;15.10;99.90
20481;DHT22;10399;50.754;3.366;2023-02-13T11:46:45;15.40;99.90
20481;DHT22;10399;50.754;3.366;2023-02-13T11:49:20;15.20;99.90
20481;DHT22;10399;50.754;3.366;2023-02-13T11:51:53;15.50;99.90
20481;DHT22;10399;50.754;3.366;2023-02-13T11:54:30;15.90;99.90
20481;DHT22;10399;50.754;3.366;2023-02-13T11:59:43;16.60;99.90
20481;DHT22;10399;50.754;3.366;2023-02-13T12:02:20;16.40;99.90
20481;DHT22;10399;50.754;3.366;2023-02-13T12:07:39;15.80;99.90
20481;DHT22;10399;50.754;3.366;2023-02-13T12:12:57;15.80;99.90
20481;DHT22;10399;50.754;3.366;2023-02-13T12:15:31;16.70;99.90
20481;DHT22;10399;50.754;3.366;2023-02-13T12:18:03;17.10;99.90
20481;DHT22;10399;50.754;3.366;2023-02-13T12:23:33;17.50;99.90
20481;DHT22;10399;50.754;3.366;2023-02-13T12:26:28;17.50;99.90
20481;DHT22;10399;50.754;3.366;2023-02-13T12:39:46;18.50;99.90
20481;DHT22;10399;50.754;3.366;2023-02-13T12:42:42;18.50;99.90
20481;DHT22;10399;50.754;3.366;2023-02-13T12:51:02;18.10;99.90
20481;DHT22;10399;50.754;3.366;2023-02-13T12:53:46;18.50;99.90
20481;DHT22;10399;50.754;3.366;2023-02-13T12:59:21;18.30;99.90
20481;DHT22;10399;50.754;3.366;2023-02-13T13:22:10;18.10;99.90
20481;DHT22;10399;50.754;3.366;2023-02-13T13:27:03;18.00;99.90
20481;DHT22;10399;50.754;3.366;2023-02-13T13:32:20;18.00;99.90
20481;DHT22;10399;50.754;3.366;2023-02-13T13:34:47;17.70;99.90
20481;DHT22;10399;50.754;3.366;2023-02-13T13:37:36;17.50;99.90
20481;DHT22;10399;50.754;3.366;2023-02-13T13:40:41;16.90;99.90
20481;DHT22;10399;50.754;3.366;2023-02-13T13:46:23;16.50;99.90
20481;DHT22;10399;50.754;3.366;2023-02-13T13:51:44;16.60;99.90
20481;DHT22;10399;50.754;3.366;2023-02-13T14:05:09;17.40;99.90
20481;DHT22;10399;50.754;3.366;2023-02-13T14:07:46;17.20;99.90
20481;DHT22;10399;50.754;3.366;2023-02-13T14:20:51;17.50;99.90
20481;DHT22;10399;50.754;3.366;2023-02-13T14:36:37;17.40;99.90
20481;DHT22;10399;50.754;3.366;2023-02-13T14:39:27;17.70;99.90
20481;DHT22;10399;50.754;3.366;2023-02-13T14:47:10;18.00;99.90
20481;DHT22;10399;50.754;3.366;2023-02-13T14:49:39;17.90;99.90
20481;DHT22;10399;50.754;3.366;2023-02-13T14:52:18;17.60;99.90
20481;DHT22;10399;50.754;3.366;2023-02-13T14:54:49;17.40;99.90
20481;DHT22;10399;50.754;3.366;2023-02-13T14:57:22;17.30;99.90
20481;DHT22;10399;50.754;3.366;2023-02-13T14:59:53;17.50;99.90
20481;DHT22;10399;50.754;3.366;2023-02-13T15:02:27;17.50;99.90
20481;DHT22;10399;50.754;3.366;2023-02-13T15:07:29;17.20;99.90
20481;DHT22;10399;50.754;3.366;2023-02-13T15:12:57;17.00;99.90
20481;DHT22;10399;50.754;3.366;2023-02-13T15:15:35;17.00;99.90
20481;DHT22;10399;50.754;3.366;2023-02-13T15:18:08;17.10;99.90
20481;DHT22;10399;50.754;3.366;2023-02-13T15:20:39;17.00;99.90
20481;DHT22;10399;50.754;3.366;2023-02-13T15:23:21;16.70;99.90
20481;DHT22;10399;50.754;3.366;2023-02-13T15:25:59;16.50;99.90
20481;DHT22;10399;50.754;3.366;2023-02-13T15:28:27;16.40;99.90
20481;DHT22;10399;50.754;3.366;2023-02-13T15:31:02;16.40;99.90
20481;DHT22;10399;50.754;3.366;2023-02-13T15:33:45;16.50;99.90
20481;DHT22;10399;50.754;3.366;2023-02-13T15:36:24;16.10;99.90
20481;DHT22;10399;50.754;3.366;2023-02-13T15:39:05;16.00;99.90
20481;DHT22;10399;50.754;3.366;2023-02-13T15:41:38;15.70;99.90
20481;DHT22;10399;50.754;3.366;2023-02-13T15:44:07;15.60;99.90
20481;DHT22;10399;50.754;3.366;2023-02-13T15:46:39;15.40;99.90
20481;DHT22;10399;50.754;3.366;2023-02-13T15:49:15;15.40;99.90
20481;DHT22;10399;50.754;3.366;2023-02-13T15:51:43;15.10;99.90
20481;DHT22;10399;50.754;3.366;2023-02-13T15:54:27;15.00;99.90
20481;DHT22;10399;50.754;3.366;2023-02-13T15:57:01;14.70;99.90
20481;DHT22;10399;50.754;3.366;2023-02-13T15:59:38;14.60;99.90
20481;DHT22;10399;50.754;3.366;2023-02-13T16:02:13;14.40;99.90
20481;DHT22;10399;50.754;3.366;2023-02-13T16:04:42;14.50;99.90
20481;DHT22;10399;50.754;3.366;2023-02-13T16:07:12;14.50;99.90
20481;DHT22;10399;50.754;3.366;2023-02-13T16:09:39;14.30;99.90
20481;DHT22;10399;50.754;3.366;2023-02-13T16:12:26;14.20;99.90
20481;DHT22;10399;50.754;3.366;2023-02-13T16:15:00;14.20;99.90
20481;DHT22;10399;50.754;3.366;2023-02-13T16:20:00;14.10;99.90
20481;DHT22;10399;50.754;3.366;2023-02-13T16:22:38;14.20;99.90
20481;DHT22;10399;50.754;3.366;2023-02-13T16:30:39;13.90;99.90
20481;DHT22;10399;50.754;3.366;2023-02-13T16:35:48;13.80;99.90
20481;DHT22;10399;50.754;3.366;2023-02-13T16:40:53;13.80;99.90
20481;DHT22;10399;50.754;3.366;2023-02-13T16:49:14;13.60;99.90
20481;DHT22;10399;50.754;3.366;2023-02-13T16:57:16;13.30;99.90
20481;DHT22;10399;50.754;3.366;2023-02-13T17:02:34;12.90;99.90
20481;DHT22;10399;50.754;3.366;2023-02-13T17:07:43;12.70;99.90
20481;DHT22;10399;50.754;3.366;2023-02-13T17:12:50;12.50;99.90
20481;DHT22;10399;50.754;3.366;2023-02-13T17:15:19;12.50;99.90
20481;DHT22;10399;50.754;3.366;2023-02-13T17:17:47;12.40;99.90
20481;DHT22;10399;50.754;3.366;2023-02-13T17:20:17;12.20;99.90
20481;DHT22;10399;50.754;3.366;2023-02-13T17:22:52;12.20;99.90
20481;DHT22;10399;50.754;3.366;2023-02-13T17:25:23;12.00;99.90
20481;DHT22;10399;50.754;3.366;2023-02-13T17:27:52;11.80;99.90
20481;DHT22;10399;50.754;3.366;2023-02-13T17:30:22;11.60;99.90
20481;DHT22;10399;50.754;3.366;2023-02-13T17:32:54;11.60;99.90
20481;DHT22;10399;50.754;3.366;2023-02-13T17:35:22;11.60;99.90
20481;DHT22;10399;50.754;3.366;2023-02-13T17:37:49;11.60;99.90
20481;DHT22;10399;50.754;3.366;2023-02-13T17:40:18;11.40;99.90
20481;DHT22;10399;50.754;3.366;2023-02-13T17:42:49;11.40;99.90
20481;DHT22;10399;50.754;3.366;2023-02-13T17:45:19;11.40;99.90
20481;DHT22;10399;50.754;3.366;2023-02-13T17:47:46;11.30;99.90
20481;DHT22;10399;50.754;3.366;2023-02-13T17:50:13;11.30;99.90
20481;DHT22;10399;50.754;3.366;2023-02-13T17:52:41;11.10;99.90
20481;DHT22;10399;50.754;3.366;2023-02-13T17:55:24;11.10;99.90
20481;DHT22;10399;50.754;3.366;2023-02-13T17:57:52;11.10;99.90
20481;DHT22;10399;50.754;3.366;2023-02-13T18:00:20;11.00;99.90
20481;DHT22;10399;50.754;3.366;2023-02-13T18:02:49;11.10;99.90
20481;DHT22;10399;50.754;3.366;2023-02-13T18:05:17;11.10;99.90
20481;DHT22;10399;50.754;3.366;2023-02-13T18:07:45;11.20;99.90
20481;DHT22;10399;50.754;3.366;2023-02-13T18:10:17;11.10;99.90
20481;DHT22;10399;50.754;3.366;2023-02-13T18:12:45;11.00;99.90
20481;DHT22;10399;50.754;3.366;2023-02-13T18:15:13;11.10;99.90
20481;DHT22;10399;50.754;3.366;2023-02-13T18:17:40;11.10;99.90
20481;DHT22;10399;50.754;3.366;2023-02-13T18:20:10;11.20;99.90
20481;DHT22;10399;50.754;3.366;2023-02-13T18:22:37;11.10;99.90
20481;DHT22;10399;50.754;3.366;2023-02-13T18:25:04;11.00;99.90
20481;DHT22;10399;50.754;3.366;2023-02-13T18:27:32;11.00;99.90
20481;DHT22;10399;50.754;3.366;2023-02-13T18:29:59;11.00;99.90
20481;DHT22;10399;50.754;3.366;2023-02-13T18:32:26;11.00;99.90
20481;DHT22;10399;50.754;3.366;2023-02-13T18:34:53;10.90;99.90
20481;DHT22;10399;50.754;3.366;2023-02-13T18:37:20;10.80;99.90
20481;DHT22;10399;50.754;3.366;2023-02-13T18:39:47;10.70;99.90
20481;DHT22;10399;50.754;3.366;2023-02-13T18:42:15;10.60;99.90
20481;DHT22;10399;50.754;3.366;2023-02-13T18:44:42;10.50;99.90
20481;DHT22;10399;50.754;3.366;2023-02-13T18:47:09;10.50;99.90
20481;DHT22;10399;50.754;3.366;2023-02-13T18:49:36;10.50;99.90
20481;DHT22;10399;50.754;3.366;2023-02-13T18:52:03;10.40;99.90
20481;DHT22;10399;50.754;3.366;2023-02-13T18:54:30;10.30;99.90
20481;DHT22;10399;50.754;3.366;2023-02-13T18:56:57;10.20;99.90
20481;DHT22;10399;50.754;3.366;2023-02-13T18:59:24;10.20;99.90
20481;DHT22;10399;50.754;3.366;2023-02-13T19:01:51;10.20;99.90
20481;DHT22;10399;50.754;3.366;2023-02-13T19:04:19;10.10;99.90
20481;DHT22;10399;50.754;3.366;2023-02-13T19:06:46;10.00;99.90
20481;DHT22;10399;50.754;3.366;2023-02-13T19:09:13;10.10;99.90
20481;DHT22;10399;50.754;3.366;2023-02-13T19:11:40;10.00;99.90
20481;DHT22;10399;50.754;3.366;2023-02-13T19:14:11;9.90;99.90
20481;DHT22;10399;50.754;3.366;2023-02-13T19:16:39;9.80;99.90
20481;DHT22;10399;50.754;3.366;2023-02-13T19:19:07;9.80;99.90
20481;DHT22;10399;50.754;3.366;2023-02-13T19:21:37;9.70;99.90
20481;DHT22;10399;50.754;3.366;2023-02-13T19:24:06;9.70;99.90
20481;DHT22;10399;50.754;3.366;2023-02-13T19:26:35;9.70;99.90
20481;DHT22;10399;50.754;3.366;2023-02-13T19:29:02;9.60;99.90
20481;DHT22;10399;50.754;3.366;2023-02-13T19:31:31;9.60;99.90
20481;DHT22;10399;50.754;3.366;2023-02-13T19:33:58;9.40;99.90
20481;DHT22;10399;50.754;3.366;2023-02-13T19:36:27;9.40;99.90